Terminal Aerodrome Forecast
Issued by NWS Tampa Bay Area, FL

Home | Current Version | Previous Version | Text Only | Print | Product List | Glossary On
Versions: 1 2 3 4 5 6 7 8 9 10 11 12 13 14 15 16 17
000
FTUS42 KTBW 171700
TAFSRQ
TAF
KSRQ 171740Z 1718/1818 08013G20KT P6SM BKN025 BKN050
     FM172000 08013KT P6SM VCTS BKN025CB BKN050
      TEMPO 1720/1724 VRB18G28KT 4SM SHRA BKN015
     FM180100 08012KT P6SM SCT025 BKN100
     FM180800 09011KT P6SM BKN025
     FM181400 11012KT P6SM VCSH SCT015 BKN025
     FM181700 14014G22KT P6SM VCSH SCT015 BKN030=

USA.gov is the U.S. government's official web portal to all federal, state and local government web resources and services.